sensor_id;sensor_type;location;lat;lon;timestamp;P1;durP1;ratioP1;P2;durP2;ratioP2
44842;SDS011;31884;52.538;13.820;2023-06-22T00:01:17;15.35;;;12.27;;
44842;SDS011;31884;52.538;13.820;2023-06-22T00:03:43;15.82;;;12.80;;
44842;SDS011;31884;52.538;13.820;2023-06-22T00:06:08;15.77;;;12.85;;
44842;SDS011;31884;52.538;13.820;2023-06-22T00:08:34;12.80;;;11.50;;
44842;SDS011;31884;52.538;13.820;2023-06-22T00:10:59;16.42;;;13.73;;
44842;SDS011;31884;52.538;13.820;2023-06-22T00:13:25;15.80;;;13.63;;
44842;SDS011;31884;52.538;13.820;2023-06-22T00:15:50;14.50;;;12.98;;
44842;SDS011;31884;52.538;13.820;2023-06-22T00:18:16;17.17;;;13.98;;
44842;SDS011;31884;52.538;13.820;2023-06-22T00:20:41;16.55;;;14.27;;
44842;SDS011;31884;52.538;13.820;2023-06-22T00:23:07;14.15;;;12.70;;
44842;SDS011;31884;52.538;13.820;2023-06-22T00:25:33;13.55;;;12.13;;
44842;SDS011;31884;52.538;13.820;2023-06-22T00:27:59;14.20;;;12.70;;
44842;SDS011;31884;52.538;13.820;2023-06-22T00:30:25;15.65;;;13.52;;
44842;SDS011;31884;52.538;13.820;2023-06-22T00:32:50;17.55;;;14.18;;
44842;SDS011;31884;52.538;13.820;2023-06-22T00:35:16;15.52;;;13.80;;
44842;SDS011;31884;52.538;13.820;2023-06-22T00:37:41;16.70;;;12.60;;
44842;SDS011;31884;52.538;13.820;2023-06-22T00:40:07;17.38;;;13.35;;
44842;SDS011;31884;52.538;13.820;2023-06-22T00:42:36;16.38;;;13.40;;
44842;SDS011;31884;52.538;13.820;2023-06-22T00:45:01;16.23;;;13.85;;
44842;SDS011;31884;52.538;13.820;2023-06-22T00:47:27;14.93;;;13.15;;
44842;SDS011;31884;52.538;13.820;2023-06-22T00:49:53;14.57;;;12.95;;
44842;SDS011;31884;52.538;13.820;2023-06-22T00:52:19;15.32;;;13.73;;
44842;SDS011;31884;52.538;13.820;2023-06-22T00:54:50;15.02;;;13.43;;
44842;SDS011;31884;52.538;13.820;2023-06-22T00:57:16;16.73;;;14.45;;
44842;SDS011;31884;52.538;13.820;2023-06-22T00:59:43;16.30;;;13.80;;
44842;SDS011;31884;52.538;13.820;2023-06-22T01:02:09;16.23;;;14.00;;
44842;SDS011;31884;52.538;13.820;2023-06-22T01:04:35;17.45;;;14.20;;
44842;SDS011;31884;52.538;13.820;2023-06-22T01:07:09;19.45;;;15.32;;
44842;SDS011;31884;52.538;13.820;2023-06-22T01:09:51;15.75;;;13.93;;
44842;SDS011;31884;52.538;13.820;2023-06-22T01:12:51;14.20;;;12.70;;
44842;SDS011;31884;52.538;13.820;2023-06-22T01:17:48;15.35;;;13.15;;
44842;SDS011;31884;52.538;13.820;2023-06-22T01:20:14;16.00;;;13.23;;
44842;SDS011;31884;52.538;13.820;2023-06-22T01:22:46;14.32;;;12.63;;
44842;SDS011;31884;52.538;13.820;2023-06-22T01:25:19;17.58;;;14.70;;
44842;SDS011;31884;52.538;13.820;2023-06-22T01:27:53;15.82;;;13.65;;
44842;SDS011;31884;52.538;13.820;2023-06-22T01:30:28;15.80;;;13.75;;
44842;SDS011;31884;52.538;13.820;2023-06-22T01:32:55;16.00;;;14.20;;
44842;SDS011;31884;52.538;13.820;2023-06-22T01:35:22;15.43;;;13.80;;
44842;SDS011;31884;52.538;13.820;2023-06-22T01:37:49;17.38;;;12.73;;
44842;SDS011;31884;52.538;13.820;2023-06-22T01:40:14;17.02;;;13.82;;
44842;SDS011;31884;52.538;13.820;2023-06-22T01:42:41;16.40;;;13.63;;
44842;SDS011;31884;52.538;13.820;2023-06-22T01:45:08;15.18;;;13.30;;
44842;SDS011;31884;52.538;13.820;2023-06-22T01:47:36;14.82;;;12.95;;
44842;SDS011;31884;52.538;13.820;2023-06-22T01:50:02;15.07;;;12.60;;
44842;SDS011;31884;52.538;13.820;2023-06-22T01:52:27;15.55;;;12.85;;
44842;SDS011;31884;52.538;13.820;2023-06-22T01:54:53;16.38;;;13.50;;
44842;SDS011;31884;52.538;13.820;2023-06-22T01:57:19;16.42;;;13.15;;
44842;SDS011;31884;52.538;13.820;2023-06-22T01:59:49;15.23;;;13.23;;
44842;SDS011;31884;52.538;13.820;2023-06-22T02:02:24;16.48;;;12.93;;
44842;SDS011;31884;52.538;13.820;2023-06-22T02:04:58;14.00;;;12.48;;
44842;SDS011;31884;52.538;13.820;2023-06-22T02:07:29;14.07;;;12.07;;
44842;SDS011;31884;52.538;13.820;2023-06-22T02:09:57;14.85;;;13.10;;
44842;SDS011;31884;52.538;13.820;2023-06-22T02:12:25;15.43;;;12.80;;
44842;SDS011;31884;52.538;13.820;2023-06-22T02:14:52;14.07;;;12.30;;
44842;SDS011;31884;52.538;13.820;2023-06-22T02:17:18;14.77;;;12.80;;
44842;SDS011;31884;52.538;13.820;2023-06-22T02:19:44;15.35;;;12.43;;
44842;SDS011;31884;52.538;13.820;2023-06-22T02:22:10;13.55;;;11.77;;
44842;SDS011;31884;52.538;13.820;2023-06-22T02:24:37;15.77;;;13.57;;
44842;SDS011;31884;52.538;13.820;2023-06-22T02:27:03;14.88;;;13.15;;
44842;SDS011;31884;52.538;13.820;2023-06-22T02:29:29;14.63;;;13.02;;
44842;SDS011;31884;52.538;13.820;2023-06-22T02:31:55;18.42;;;13.23;;
44842;SDS011;31884;52.538;13.820;2023-06-22T02:34:21;15.20;;;12.90;;
44842;SDS011;31884;52.538;13.820;2023-06-22T02:36:47;15.90;;;13.55;;
44842;SDS011;31884;52.538;13.820;2023-06-22T02:39:20;14.23;;;12.23;;
44842;SDS011;31884;52.538;13.820;2023-06-22T02:41:48;15.32;;;12.65;;
44842;SDS011;31884;52.538;13.820;2023-06-22T02:44:14;16.33;;;13.88;;
44842;SDS011;31884;52.538;13.820;2023-06-22T02:46:40;16.92;;;13.63;;
44842;SDS011;31884;52.538;13.820;2023-06-22T02:49:05;13.73;;;11.80;;
44842;SDS011;31884;52.538;13.820;2023-06-22T02:51:32;17.73;;;14.48;;
44842;SDS011;31884;52.538;13.820;2023-06-22T02:53:59;14.52;;;12.73;;
44842;SDS011;31884;52.538;13.820;2023-06-22T02:56:25;13.13;;;11.18;;
44842;SDS011;31884;52.538;13.820;2023-06-22T02:58:51;15.25;;;12.77;;
44842;SDS011;31884;52.538;13.820;2023-06-22T03:01:17;15.93;;;12.75;;
44842;SDS011;31884;52.538;13.820;2023-06-22T03:03:49;16.20;;;13.40;;
44842;SDS011;31884;52.538;13.820;2023-06-22T03:06:14;14.75;;;13.07;;
44842;SDS011;31884;52.538;13.820;2023-06-22T03:08:40;18.35;;;14.93;;
44842;SDS011;31884;52.538;13.820;2023-06-22T03:11:06;15.05;;;12.82;;
44842;SDS011;31884;52.538;13.820;2023-06-22T03:13:32;15.18;;;13.57;;
44842;SDS011;31884;52.538;13.820;2023-06-22T03:15:58;14.82;;;13.20;;
44842;SDS011;31884;52.538;13.820;2023-06-22T03:18:23;16.25;;;13.85;;
44842;SDS011;31884;52.538;13.820;2023-06-22T03:20:49;15.25;;;13.57;;
44842;SDS011;31884;52.538;13.820;2023-06-22T03:23:14;15.73;;;14.07;;
44842;SDS011;31884;52.538;13.820;2023-06-22T03:25:40;13.18;;;11.77;;
44842;SDS011;31884;52.538;13.820;2023-06-22T03:28:06;13.80;;;12.35;;
44842;SDS011;31884;52.538;13.820;2023-06-22T03:30:31;12.88;;;11.50;;
44842;SDS011;31884;52.538;13.820;2023-06-22T03:32:57;12.02;;;10.82;;
44842;SDS011;31884;52.538;13.820;2023-06-22T03:35:22;14.57;;;11.70;;
44842;SDS011;31884;52.538;13.820;2023-06-22T03:37:48;14.45;;;12.20;;
44842;SDS011;31884;52.538;13.820;2023-06-22T03:40:13;13.52;;;9.70;;
44842;SDS011;31884;52.538;13.820;2023-06-22T03:42:39;15.07;;;11.52;;
44842;SDS011;31884;52.538;13.820;2023-06-22T03:45:05;11.27;;;10.10;;
44842;SDS011;31884;52.538;13.820;2023-06-22T03:47:31;11.55;;;9.40;;
44842;SDS011;31884;52.538;13.820;2023-06-22T03:49:58;13.32;;;9.68;;
44842;SDS011;31884;52.538;13.820;2023-06-22T03:52:23;10.18;;;9.18;;
44842;SDS011;31884;52.538;13.820;2023-06-22T03:54:50;9.48;;;8.57;;
44842;SDS011;31884;52.538;13.820;2023-06-22T03:57:15;11.13;;;8.70;;
44842;SDS011;31884;52.538;13.820;2023-06-22T03:59:41;10.85;;;8.07;;
44842;SDS011;31884;52.538;13.820;2023-06-22T04:02:06;10.23;;;7.47;;
44842;SDS011;31884;52.538;13.820;2023-06-22T04:04:32;8.75;;;7.85;;
44842;SDS011;31884;52.538;13.820;2023-06-22T04:06:58;7.80;;;7.00;;
44842;SDS011;31884;52.538;13.820;2023-06-22T04:09:24;12.57;;;7.85;;
44842;SDS011;31884;52.538;13.820;2023-06-22T04:11:49;7.03;;;6.32;;
44842;SDS011;31884;52.538;13.820;2023-06-22T04:14:15;8.65;;;6.95;;
44842;SDS011;31884;52.538;13.820;2023-06-22T04:16:40;7.57;;;6.20;;
44842;SDS011;31884;52.538;13.820;2023-06-22T04:19:06;7.57;;;6.07;;
44842;SDS011;31884;52.538;13.820;2023-06-22T04:21:31;8.13;;;6.20;;
44842;SDS011;31884;52.538;13.820;2023-06-22T04:23:57;7.07;;;6.05;;
44842;SDS011;31884;52.538;13.820;2023-06-22T04:26:22;6.07;;;4.90;;
44842;SDS011;31884;52.538;13.820;2023-06-22T04:28:48;6.30;;;5.68;;
44842;SDS011;31884;52.538;13.820;2023-06-22T04:31:20;5.57;;;5.07;;
44842;SDS011;31884;52.538;13.820;2023-06-22T04:33:46;9.18;;;5.65;;
44842;SDS011;31884;52.538;13.820;2023-06-22T04:36:12;5.68;;;5.18;;
44842;SDS011;31884;52.538;13.820;2023-06-22T04:38:38;6.05;;;5.45;;
44842;SDS011;31884;52.538;13.820;2023-06-22T04:41:04;6.20;;;5.30;;
44842;SDS011;31884;52.538;13.820;2023-06-22T04:43:29;5.28;;;4.78;;
44842;SDS011;31884;52.538;13.820;2023-06-22T04:45:55;5.47;;;4.97;;
44842;SDS011;31884;52.538;13.820;2023-06-22T04:48:28;6.60;;;4.72;;
44842;SDS011;31884;52.538;13.820;2023-06-22T04:50:57;6.32;;;5.22;;
44842;SDS011;31884;52.538;13.820;2023-06-22T04:53:27;6.00;;;5.10;;
44842;SDS011;31884;52.538;13.820;2023-06-22T04:55:54;4.85;;;4.18;;
44842;SDS011;31884;52.538;13.820;2023-06-22T04:58:20;4.43;;;4.03;;
44842;SDS011;31884;52.538;13.820;2023-06-22T05:00:46;6.93;;;4.93;;
44842;SDS011;31884;52.538;13.820;2023-06-22T05:03:12;7.20;;;4.97;;
44842;SDS011;31884;52.538;13.820;2023-06-22T05:05:37;4.15;;;3.75;;
44842;SDS011;31884;52.538;13.820;2023-06-22T05:08:03;4.47;;;3.63;;
44842;SDS011;31884;52.538;13.820;2023-06-22T05:10:31;4.20;;;3.80;;
44842;SDS011;31884;52.538;13.820;2023-06-22T05:12:58;4.03;;;3.50;;
44842;SDS011;31884;52.538;13.820;2023-06-22T05:15:23;5.28;;;3.60;;
44842;SDS011;31884;52.538;13.820;2023-06-22T05:17:52;3.80;;;3.50;;
44842;SDS011;31884;52.538;13.820;2023-06-22T05:20:18;3.92;;;3.45;;
44842;SDS011;31884;52.538;13.820;2023-06-22T05:22:44;5.47;;;3.58;;
44842;SDS011;31884;52.538;13.820;2023-06-22T05:25:10;4.05;;;3.63;;
44842;SDS011;31884;52.538;13.820;2023-06-22T05:27:36;4.88;;;4.03;;
44842;SDS011;31884;52.538;13.820;2023-06-22T05:30:08;4.40;;;3.50;;
44842;SDS011;31884;52.538;13.820;2023-06-22T05:32:35;4.47;;;3.53;;
44842;SDS011;31884;52.538;13.820;2023-06-22T05:35:01;4.10;;;3.70;;
44842;SDS011;31884;52.538;13.820;2023-06-22T05:37:28;4.28;;;3.42;;
44842;SDS011;31884;52.538;13.820;2023-06-22T05:39:54;3.42;;;3.13;;
44842;SDS011;31884;52.538;13.820;2023-06-22T05:42:20;4.28;;;2.65;;
44842;SDS011;31884;52.538;13.820;2023-06-22T05:44:46;5.95;;;2.92;;
44842;SDS011;31884;52.538;13.820;2023-06-22T05:47:12;2.92;;;2.60;;
44842;SDS011;31884;52.538;13.820;2023-06-22T05:49:37;2.42;;;2.22;;
44842;SDS011;31884;52.538;13.820;2023-06-22T05:52:03;3.42;;;2.63;;
44842;SDS011;31884;52.538;13.820;2023-06-22T05:54:29;2.85;;;2.45;;
44842;SDS011;31884;52.538;13.820;2023-06-22T05:56:54;2.88;;;2.55;;
44842;SDS011;31884;52.538;13.820;2023-06-22T05:59:20;2.97;;;2.67;;
44842;SDS011;31884;52.538;13.820;2023-06-22T06:01:45;3.63;;;2.33;;
44842;SDS011;31884;52.538;13.820;2023-06-22T06:04:14;2.47;;;2.28;;
44842;SDS011;31884;52.538;13.820;2023-06-22T06:06:41;2.45;;;2.25;;
44842;SDS011;31884;52.538;13.820;2023-06-22T06:09:06;3.33;;;2.30;;
44842;SDS011;31884;52.538;13.820;2023-06-22T06:11:32;3.13;;;2.35;;
44842;SDS011;31884;52.538;13.820;2023-06-22T06:13:58;2.72;;;2.42;;
44842;SDS011;31884;52.538;13.820;2023-06-22T06:16:24;3.30;;;2.47;;
44842;SDS011;31884;52.538;13.820;2023-06-22T06:18:49;4.22;;;2.25;;
44842;SDS011;31884;52.538;13.820;2023-06-22T06:21:15;2.45;;;2.08;;
44842;SDS011;31884;52.538;13.820;2023-06-22T06:23:41;2.40;;;2.20;;
44842;SDS011;31884;52.538;13.820;2023-06-22T06:26:07;5.40;;;2.40;;
44842;SDS011;31884;52.538;13.820;2023-06-22T06:28:33;3.10;;;2.33;;
44842;SDS011;31884;52.538;13.820;2023-06-22T06:30:59;2.55;;;1.92;;
44842;SDS011;31884;52.538;13.820;2023-06-22T06:33:24;2.70;;;2.17;;
44842;SDS011;31884;52.538;13.820;2023-06-22T06:35:50;1.98;;;1.70;;
44842;SDS011;31884;52.538;13.820;2023-06-22T06:38:15;5.18;;;2.47;;
44842;SDS011;31884;52.538;13.820;2023-06-22T06:40:41;2.30;;;2.10;;
44842;SDS011;31884;52.538;13.820;2023-06-22T06:43:06;2.42;;;1.95;;
44842;SDS011;31884;52.538;13.820;2023-06-22T06:45:32;2.60;;;1.85;;
44842;SDS011;31884;52.538;13.820;2023-06-22T06:47:59;3.38;;;2.67;;
44842;SDS011;31884;52.538;13.820;2023-06-22T06:50:25;2.40;;;2.15;;
44842;SDS011;31884;52.538;13.820;2023-06-22T06:52:50;3.03;;;2.17;;
44842;SDS011;31884;52.538;13.820;2023-06-22T06:55:16;2.65;;;2.15;;
44842;SDS011;31884;52.538;13.820;2023-06-22T06:57:42;2.53;;;2.33;;
44842;SDS011;31884;52.538;13.820;2023-06-22T07:00:11;3.70;;;2.70;;
44842;SDS011;31884;52.538;13.820;2023-06-22T07:02:39;4.03;;;2.70;;
44842;SDS011;31884;52.538;13.820;2023-06-22T07:05:06;2.75;;;2.47;;
44842;SDS011;31884;52.538;13.820;2023-06-22T07:07:32;2.70;;;2.50;;
44842;SDS011;31884;52.538;13.820;2023-06-22T07:09:58;2.80;;;2.30;;
44842;SDS011;31884;52.538;13.820;2023-06-22T07:12:24;2.78;;;2.33;;
44842;SDS011;31884;52.538;13.820;2023-06-22T07:14:49;2.55;;;2.25;;
44842;SDS011;31884;52.538;13.820;2023-06-22T07:17:16;2.50;;;2.00;;
44842;SDS011;31884;52.538;13.820;2023-06-22T07:19:41;2.97;;;2.40;;
44842;SDS011;31884;52.538;13.820;2023-06-22T07:22:07;2.63;;;2.42;;
44842;SDS011;31884;52.538;13.820;2023-06-22T07:24:32;2.58;;;2.20;;
44842;SDS011;31884;52.538;13.820;2023-06-22T07:26:58;2.65;;;2.45;;
44842;SDS011;31884;52.538;13.820;2023-06-22T07:29:24;2.42;;;2.10;;
44842;SDS011;31884;52.538;13.820;2023-06-22T07:31:50;3.85;;;2.30;;
44842;SDS011;31884;52.538;13.820;2023-06-22T07:34:21;2.90;;;2.60;;
44842;SDS011;31884;52.538;13.820;2023-06-22T07:36:47;2.63;;;2.42;;
44842;SDS011;31884;52.538;13.820;2023-06-22T07:39:12;2.28;;;2.00;;
44842;SDS011;31884;52.538;13.820;2023-06-22T07:41:38;2.45;;;2.20;;
44842;SDS011;31884;52.538;13.820;2023-06-22T07:44:05;4.78;;;2.35;;
44842;SDS011;31884;52.538;13.820;2023-06-22T07:46:31;2.00;;;1.90;;
44842;SDS011;31884;52.538;13.820;2023-06-22T07:48:57;2.63;;;2.13;;
44842;SDS011;31884;52.538;13.820;2023-06-22T07:51:22;3.35;;;1.77;;
44842;SDS011;31884;52.538;13.820;2023-06-22T07:53:48;3.30;;;2.63;;
44842;SDS011;31884;52.538;13.820;2023-06-22T07:56:14;2.45;;;2.25;;
44842;SDS011;31884;52.538;13.820;2023-06-22T07:58:44;4.20;;;2.15;;
44842;SDS011;31884;52.538;13.820;2023-06-22T08:01:10;1.90;;;1.80;;
44842;SDS011;31884;52.538;13.820;2023-06-22T08:03:36;2.00;;;1.80;;
44842;SDS011;31884;52.538;13.820;2023-06-22T08:06:02;5.72;;;3.38;;
44842;SDS011;31884;52.538;13.820;2023-06-22T08:08:28;4.00;;;2.50;;
44842;SDS011;31884;52.538;13.820;2023-06-22T08:10:54;5.95;;;2.60;;
44842;SDS011;31884;52.538;13.820;2023-06-22T08:13:19;3.33;;;2.85;;
44842;SDS011;31884;52.538;13.820;2023-06-22T08:15:45;3.20;;;2.20;;
44842;SDS011;31884;52.538;13.820;2023-06-22T08:18:10;2.60;;;2.40;;
44842;SDS011;31884;52.538;13.820;2023-06-22T08:20:35;3.28;;;2.65;;
44842;SDS011;31884;52.538;13.820;2023-06-22T08:23:01;2.10;;;1.90;;
44842;SDS011;31884;52.538;13.820;2023-06-22T08:25:31;2.40;;;2.20;;
44842;SDS011;31884;52.538;13.820;2023-06-22T08:27:57;3.35;;;2.40;;
44842;SDS011;31884;52.538;13.820;2023-06-22T08:30:23;2.30;;;2.10;;
44842;SDS011;31884;52.538;13.820;2023-06-22T08:32:48;3.08;;;2.20;;
44842;SDS011;31884;52.538;13.820;2023-06-22T08:35:14;3.40;;;2.30;;
44842;SDS011;31884;52.538;13.820;2023-06-22T08:37:39;2.28;;;2.05;;
44842;SDS011;31884;52.538;13.820;2023-06-22T08:40:07;3.30;;;2.20;;
44842;SDS011;31884;52.538;13.820;2023-06-22T08:42:34;2.97;;;2.45;;
44842;SDS011;31884;52.538;13.820;2023-06-22T08:45:00;2.30;;;2.10;;
44842;SDS011;31884;52.538;13.820;2023-06-22T08:47:29;2.60;;;2.40;;
44842;SDS011;31884;52.538;13.820;2023-06-22T08:49:54;3.88;;;2.65;;
44842;SDS011;31884;52.538;13.820;2023-06-22T08:52:20;2.65;;;2.45;;
44842;SDS011;31884;52.538;13.820;2023-06-22T08:54:46;3.40;;;2.60;;
44842;SDS011;31884;52.538;13.820;2023-06-22T08:57:12;3.92;;;2.90;;
44842;SDS011;31884;52.538;13.820;2023-06-22T08:59:37;2.85;;;2.60;;
44842;SDS011;31884;52.538;13.820;2023-06-22T09:02:03;2.00;;;1.80;;
44842;SDS011;31884;52.538;13.820;2023-06-22T09:04:29;2.40;;;2.20;;
44842;SDS011;31884;52.538;13.820;2023-06-22T09:06:54;2.58;;;2.30;;
44842;SDS011;31884;52.538;13.820;2023-06-22T09:09:21;2.63;;;2.40;;
44842;SDS011;31884;52.538;13.820;2023-06-22T09:11:46;2.50;;;2.10;;
44842;SDS011;31884;52.538;13.820;2023-06-22T09:14:12;2.85;;;1.98;;
44842;SDS011;31884;52.538;13.820;2023-06-22T09:16:38;2.88;;;2.42;;
44842;SDS011;31884;52.538;13.820;2023-06-22T09:19:03;3.85;;;2.42;;
44842;SDS011;31884;52.538;13.820;2023-06-22T09:21:29;2.75;;;2.00;;
44842;SDS011;31884;52.538;13.820;2023-06-22T09:23:54;3.75;;;2.33;;
44842;SDS011;31884;52.538;13.820;2023-06-22T09:26:20;2.28;;;2.08;;
44842;SDS011;31884;52.538;13.820;2023-06-22T09:28:45;3.03;;;2.22;;
44842;SDS011;31884;52.538;13.820;2023-06-22T09:31:12;2.40;;;2.03;;
44842;SDS011;31884;52.538;13.820;2023-06-22T09:33:37;2.50;;;2.30;;
44842;SDS011;31884;52.538;13.820;2023-06-22T09:36:03;4.00;;;2.40;;
44842;SDS011;31884;52.538;13.820;2023-06-22T09:38:35;4.75;;;2.20;;
44842;SDS011;31884;52.538;13.820;2023-06-22T09:41:02;2.08;;;1.88;;
44842;SDS011;31884;52.538;13.820;2023-06-22T09:43:27;2.10;;;1.75;;
44842;SDS011;31884;52.538;13.820;2023-06-22T09:45:53;2.75;;;2.10;;
44842;SDS011;31884;52.538;13.820;2023-06-22T09:48:19;4.60;;;1.80;;
44842;SDS011;31884;52.538;13.820;2023-06-22T09:50:44;3.00;;;2.05;;
44842;SDS011;31884;52.538;13.820;2023-06-22T09:53:10;2.92;;;2.20;;
44842;SDS011;31884;52.538;13.820;2023-06-22T09:55:35;2.67;;;2.10;;
44842;SDS011;31884;52.538;13.820;2023-06-22T09:58:01;2.20;;;2.00;;
44842;SDS011;31884;52.538;13.820;2023-06-22T10:00:26;1.98;;;1.88;;
44842;SDS011;31884;52.538;13.820;2023-06-22T10:02:52;2.63;;;2.28;;
44842;SDS011;31884;52.538;13.820;2023-06-22T10:05:17;2.03;;;1.60;;
44842;SDS011;31884;52.538;13.820;2023-06-22T10:07:43;2.83;;;1.67;;
44842;SDS011;31884;52.538;13.820;2023-06-22T10:10:09;2.88;;;2.22;;
44842;SDS011;31884;52.538;13.820;2023-06-22T10:12:36;3.88;;;2.30;;
44842;SDS011;31884;52.538;13.820;2023-06-22T10:15:02;2.40;;;2.20;;
44842;SDS011;31884;52.538;13.820;2023-06-22T10:17:28;2.40;;;2.00;;
44842;SDS011;31884;52.538;13.820;2023-06-22T10:19:53;2.47;;;2.22;;
44842;SDS011;31884;52.538;13.820;2023-06-22T10:22:18;1.70;;;1.60;;
44842;SDS011;31884;52.538;13.820;2023-06-22T10:24:44;2.50;;;1.70;;
44842;SDS011;31884;52.538;13.820;2023-06-22T10:27:10;4.03;;;1.92;;
44842;SDS011;31884;52.538;13.820;2023-06-22T10:29:37;2.58;;;2.10;;
44842;SDS011;31884;52.538;13.820;2023-06-22T10:32:02;3.75;;;1.98;;
44842;SDS011;31884;52.538;13.820;2023-06-22T10:34:28;2.40;;;2.20;;
44842;SDS011;31884;52.538;13.820;2023-06-22T10:36:54;2.00;;;1.83;;
44842;SDS011;31884;52.538;13.820;2023-06-22T10:39:19;3.55;;;2.13;;
44842;SDS011;31884;52.538;13.820;2023-06-22T10:41:45;5.85;;;2.47;;
44842;SDS011;31884;52.538;13.820;2023-06-22T10:44:10;2.60;;;2.35;;
44842;SDS011;31884;52.538;13.820;2023-06-22T10:46:37;4.75;;;2.47;;
44842;SDS011;31884;52.538;13.820;2023-06-22T10:49:02;3.35;;;2.40;;
44842;SDS011;31884;52.538;13.820;2023-06-22T10:51:28;2.58;;;2.22;;
44842;SDS011;31884;52.538;13.820;2023-06-22T10:53:53;3.00;;;2.40;;
44842;SDS011;31884;52.538;13.820;2023-06-22T10:56:19;2.35;;;2.15;;
44842;SDS011;31884;52.538;13.820;2023-06-22T10:58:44;3.83;;;2.60;;
44842;SDS011;31884;52.538;13.820;2023-06-22T11:01:10;2.20;;;1.92;;
44842;SDS011;31884;52.538;13.820;2023-06-22T11:03:36;2.90;;;2.60;;
44842;SDS011;31884;52.538;13.820;2023-06-22T11:06:01;3.03;;;2.47;;
44842;SDS011;31884;52.538;13.820;2023-06-22T11:08:27;2.47;;;2.28;;
44842;SDS011;31884;52.538;13.820;2023-06-22T11:10:52;2.92;;;2.50;;
44842;SDS011;31884;52.538;13.820;2023-06-22T11:13:18;3.60;;;2.50;;
44842;SDS011;31884;52.538;13.820;2023-06-22T11:15:43;4.40;;;2.90;;
44842;SDS011;31884;52.538;13.820;2023-06-22T11:18:09;3.33;;;2.97;;
44842;SDS011;31884;52.538;13.820;2023-06-22T11:20:34;3.67;;;3.17;;
44842;SDS011;31884;52.538;13.820;2023-06-22T11:23:03;3.45;;;3.15;;
44842;SDS011;31884;52.538;13.820;2023-06-22T11:25:32;3.78;;;3.47;;
44842;SDS011;31884;52.538;13.820;2023-06-22T11:27:59;3.05;;;2.75;;
44842;SDS011;31884;52.538;13.820;2023-06-22T11:30:28;2.88;;;2.58;;
44842;SDS011;31884;52.538;13.820;2023-06-22T11:32:53;2.90;;;2.70;;
44842;SDS011;31884;52.538;13.820;2023-06-22T11:35:19;3.05;;;2.55;;
44842;SDS011;31884;52.538;13.820;2023-06-22T11:37:44;4.07;;;2.75;;
44842;SDS011;31884;52.538;13.820;2023-06-22T11:40:10;2.92;;;2.65;;
44842;SDS011;31884;52.538;13.820;2023-06-22T11:42:36;3.80;;;3.35;;
44842;SDS011;31884;52.538;13.820;2023-06-22T11:45:02;4.05;;;3.65;;
44842;SDS011;31884;52.538;13.820;2023-06-22T11:47:29;4.13;;;3.63;;
44842;SDS011;31884;52.538;13.820;2023-06-22T11:49:55;3.45;;;3.10;;
44842;SDS011;31884;52.538;13.820;2023-06-22T11:52:21;4.07;;;3.67;;
44842;SDS011;31884;52.538;13.820;2023-06-22T11:54:46;4.22;;;3.80;;
44842;SDS011;31884;52.538;13.820;2023-06-22T11:57:11;3.47;;;3.17;;
44842;SDS011;31884;52.538;13.820;2023-06-22T11:59:37;4.45;;;3.35;;
44842;SDS011;31884;52.538;13.820;2023-06-22T12:02:03;3.50;;;3.20;;
44842;SDS011;31884;52.538;13.820;2023-06-22T12:04:30;3.05;;;2.75;;
44842;SDS011;31884;52.538;13.820;2023-06-22T12:06:55;3.90;;;3.25;;
44842;SDS011;31884;52.538;13.820;2023-06-22T12:09:21;4.07;;;3.67;;
44842;SDS011;31884;52.538;13.820;2023-06-22T12:11:46;3.95;;;3.53;;
44842;SDS011;31884;52.538;13.820;2023-06-22T12:14:12;3.88;;;3.47;;
44842;SDS011;31884;52.538;13.820;2023-06-22T12:16:37;4.25;;;3.20;;
44842;SDS011;31884;52.538;13.820;2023-06-22T12:19:03;3.58;;;3.15;;
44842;SDS011;31884;52.538;13.820;2023-06-22T12:21:29;4.32;;;3.67;;
44842;SDS011;31884;52.538;13.820;2023-06-22T12:23:54;4.20;;;3.25;;
44842;SDS011;31884;52.538;13.820;2023-06-22T12:26:19;3.17;;;2.92;;
44842;SDS011;31884;52.538;13.820;2023-06-22T12:28:46;3.20;;;2.90;;
44842;SDS011;31884;52.538;13.820;2023-06-22T12:31:12;5.00;;;3.45;;
44842;SDS011;31884;52.538;13.820;2023-06-22T12:33:39;4.97;;;3.90;;
44842;SDS011;31884;52.538;13.820;2023-06-22T12:36:04;3.28;;;2.58;;
44842;SDS011;31884;52.538;13.820;2023-06-22T12:38:30;3.63;;;3.22;;
44842;SDS011;31884;52.538;13.820;2023-06-22T12:40:55;3.70;;;3.08;;
44842;SDS011;31884;52.538;13.820;2023-06-22T12:43:21;2.97;;;2.67;;
44842;SDS011;31884;52.538;13.820;2023-06-22T12:45:46;3.28;;;2.78;;
44842;SDS011;31884;52.538;13.820;2023-06-22T12:48:12;3.83;;;3.25;;
44842;SDS011;31884;52.538;13.820;2023-06-22T12:50:37;4.18;;;3.42;;
44842;SDS011;31884;52.538;13.820;2023-06-22T12:53:03;3.65;;;3.28;;
44842;SDS011;31884;52.538;13.820;2023-06-22T12:55:31;3.90;;;3.40;;
44842;SDS011;31884;52.538;13.820;2023-06-22T12:57:56;3.45;;;3.10;;
44842;SDS011;31884;52.538;13.820;2023-06-22T13:00:22;4.00;;;3.60;;
44842;SDS011;31884;52.538;13.820;2023-06-22T13:02:47;3.40;;;3.10;;
44842;SDS011;31884;52.538;13.820;2023-06-22T13:05:13;3.30;;;3.00;;
44842;SDS011;31884;52.538;13.820;2023-06-22T13:07:38;5.03;;;3.30;;
44842;SDS011;31884;52.538;13.820;2023-06-22T13:10:04;4.45;;;3.75;;
44842;SDS011;31884;52.538;13.820;2023-06-22T13:12:29;3.53;;;3.22;;
44842;SDS011;31884;52.538;13.820;2023-06-22T13:14:55;4.15;;;3.50;;
44842;SDS011;31884;52.538;13.820;2023-06-22T13:17:20;3.80;;;3.35;;
44842;SDS011;31884;52.538;13.820;2023-06-22T13:19:46;4.90;;;3.17;;
44842;SDS011;31884;52.538;13.820;2023-06-22T13:24:56;3.78;;;3.47;;
44842;SDS011;31884;52.538;13.820;2023-06-22T13:27:22;5.18;;;3.65;;
44842;SDS011;31884;52.538;13.820;2023-06-22T13:29:48;4.47;;;3.70;;
44842;SDS011;31884;52.538;13.820;2023-06-22T13:32:13;4.93;;;3.35;;
44842;SDS011;31884;52.538;13.820;2023-06-22T13:34:39;4.50;;;3.63;;
44842;SDS011;31884;52.538;13.820;2023-06-22T13:37:04;4.28;;;3.83;;
44842;SDS011;31884;52.538;13.820;2023-06-22T13:39:30;4.03;;;3.60;;
44842;SDS011;31884;52.538;13.820;2023-06-22T13:41:56;4.18;;;3.35;;
44842;SDS011;31884;52.538;13.820;2023-06-22T13:44:22;4.47;;;3.33;;
44842;SDS011;31884;52.538;13.820;2023-06-22T13:46:48;4.35;;;3.50;;
44842;SDS011;31884;52.538;13.820;2023-06-22T13:49:13;4.97;;;3.63;;
44842;SDS011;31884;52.538;13.820;2023-06-22T13:51:39;3.35;;;3.05;;
44842;SDS011;31884;52.538;13.820;2023-06-22T13:54:04;3.70;;;3.40;;
44842;SDS011;31884;52.538;13.820;2023-06-22T13:56:30;4.57;;;3.80;;
44842;SDS011;31884;52.538;13.820;2023-06-22T13:58:55;4.07;;;3.67;;
44842;SDS011;31884;52.538;13.820;2023-06-22T14:01:20;5.55;;;4.13;;
44842;SDS011;31884;52.538;13.820;2023-06-22T14:03:47;6.60;;;4.07;;
44842;SDS011;31884;52.538;13.820;2023-06-22T14:06:13;4.63;;;4.22;;
44842;SDS011;31884;52.538;13.820;2023-06-22T14:08:38;5.25;;;4.05;;
44842;SDS011;31884;52.538;13.820;2023-06-22T14:11:04;6.95;;;3.70;;
44842;SDS011;31884;52.538;13.820;2023-06-22T14:13:29;4.60;;;3.80;;
44842;SDS011;31884;52.538;13.820;2023-06-22T14:15:55;4.50;;;3.90;;
44842;SDS011;31884;52.538;13.820;2023-06-22T14:18:20;5.20;;;3.90;;
44842;SDS011;31884;52.538;13.820;2023-06-22T14:20:47;4.32;;;3.92;;
44842;SDS011;31884;52.538;13.820;2023-06-22T14:23:13;4.22;;;3.80;;
44842;SDS011;31884;52.538;13.820;2023-06-22T14:25:38;4.93;;;4.00;;
44842;SDS011;31884;52.538;13.820;2023-06-22T14:28:04;4.30;;;3.90;;